Time;durP1;ratioP1;P1;durP2;ratioP2;P2;SDS_P1;SDS_P2;PMS_P1;PMS_P2;Temp;Humidity;BMP_temperature;BMP_pressure;BME280_temperature;BME280_humidity;BME280_pressure;Samples;Min_cycle;Max_cycle;Signal;HPM_P1;HPM_P2
2022/07/28 00:02:17;;;;;;;0.60;0.60;;;18.10;76.90;;;;;;5033511;28;20182;-69
2022/07/28 00:04:43;;;;;;;0.80;0.67;;;18.00;79.00;;;;;;5033393;28;20417;-70
2022/07/28 00:07:09;;;;;;;0.63;0.40;;;17.90;79.00;;;;;;5033283;28;20686;-70
2022/07/28 00:09:34;;;;;;;0.87;0.60;;;17.90;77.30;;;;;;5033397;28;20185;-70
2022/07/28 00:12:00;;;;;;;0.50;0.50;;;17.90;78.30;;;;;;5033287;28;20171;-69
2022/07/28 00:14:26;;;;;;;0.77;0.77;;;17.90;80.50;;;;;;5033568;28;20167;-70
2022/07/28 00:16:52;;;;;;;0.40;0.40;;;17.80;79.10;;;;;;5033370;28;20198;-70
2022/07/28 00:19:18;;;;;;;1.17;1.07;;;17.70;80.60;;;;;;5033303;28;20424;-70
2022/07/28 00:21:43;;;;;;;1.17;0.53;;;17.70;81.40;;;;;;5033740;28;20170;-70
2022/07/28 00:24:09;;;;;;;0.70;0.70;;;17.60;81.00;;;;;;5033119;28;20409;-70
2022/07/28 00:26:34;;;;;;;0.40;0.40;;;17.50;81.10;;;;;;5033219;28;20177;-70
2022/07/28 00:29:00;;;;;;;0.90;0.90;;;17.50;80.50;;;;;;5033178;28;20256;-70
2022/07/28 00:31:26;;;;;;;0.70;0.70;;;17.50;80.80;;;;;;5033377;28;20177;-70
2022/07/28 00:33:51;;;;;;;0.40;0.40;;;17.50;81.10;;;;;;5033209;28;20232;-70
2022/07/28 00:36:17;;;;;;;0.60;0.60;;;17.50;80.30;;;;;;5033426;28;20253;-69
2022/07/28 00:38:43;;;;;;;0.60;0.60;;;17.40;81.60;;;;;;5033026;28;20690;-69
2022/07/28 00:41:11;;;;;;;0.63;0.40;;;17.30;82.50;;;;;;5033156;28;20635;-69
2022/07/28 00:43:38;;;;;;;0.50;0.50;;;17.30;81.60;;;;;;5032987;28;20175;-70
2022/07/28 00:46:04;;;;;;;0.87;0.50;;;17.30;81.70;;;;;;5036675;28;20463;-70
2022/07/28 00:48:29;;;;;;;0.60;0.60;;;17.30;80.70;;;;;;5036750;28;20820;-70
2022/07/28 00:50:55;;;;;;;0.63;0.63;;;17.30;81.10;;;;;;5036935;28;20547;-70
2022/07/28 00:53:21;;;;;;;1.00;1.00;;;17.40;81.20;;;;;;5036992;28;20172;-70
2022/07/28 00:55:47;;;;;;;0.60;0.60;;;17.40;80.50;;;;;;5036902;28;20179;-70
2022/07/28 00:58:13;;;;;;;0.30;0.30;;;17.40;80.40;;;;;;5036896;28;20469;-69
2022/07/28 01:00:39;;;;;;;0.60;0.60;;;17.40;79.60;;;;;;5036980;28;20409;-69
2022/07/28 01:03:05;;;;;;;0.40;0.40;;;17.40;80.40;;;;;;5036578;28;20417;-70
2022/07/28 01:05:44;;;;;;;1.20;1.10;;;17.40;82.10;;;;;;5037354;28;20183;-69
2022/07/28 01:08:22;;;;;;;0.53;0.53;;;17.20;81.70;;;;;;5036711;28;20537;-70
2022/07/28 01:11:10;;;;;;;0.50;0.50;;;17.10;82.20;;;;;;5036830;28;20409;-70
2022/07/28 01:13:53;;;;;;;0.77;0.77;;;17.10;83.20;;;;;;5036357;28;20472;-69
2022/07/28 01:16:18;;;;;;;0.70;0.70;;;17.10;83.30;;;;;;5036766;28;20406;-70
2022/07/28 01:18:55;;;;;;;0.60;0.60;;;17.00;84.10;;;;;;5036428;28;20433;-69
2022/07/28 01:21:27;;;;;;;0.40;0.40;;;16.90;84.40;;;;;;5036488;28;20213;-70
2022/07/28 01:24:20;;;;;;;0.53;0.53;;;16.90;84.90;;;;;;5036496;28;20405;-69
2022/07/28 01:27:09;;;;;;;0.53;0.53;;;16.90;85.80;;;;;;5036255;28;20422;-69
2022/07/28 01:29:59;;;;;;;0.73;0.70;;;16.80;86.50;;;;;;5036328;28;20394;-69
2022/07/28 01:32:29;;;;;;;0.60;0.60;;;16.80;88.00;;;;;;5036173;28;20439;-69
2022/07/28 01:35:06;;;;;;;0.53;0.53;;;16.60;88.10;;;;;;5036409;28;20402;-69
2022/07/28 01:37:38;;;;;;;0.40;0.40;;;16.50;88.80;;;;;;5035877;28;20535;-69
2022/07/28 01:40:07;;;;;;;0.67;0.67;;;16.40;90.00;;;;;;5018342;28;20414;-70
2022/07/28 01:42:38;;;;;;;0.40;0.40;;;16.50;90.10;;;;;;5035947;28;20412;-69
2022/07/28 01:45:06;;;;;;;1.83;1.67;;;16.50;90.40;;;;;;5036224;28;20515;-69
2022/07/28 01:47:34;;;;;;;0.70;0.70;;;16.40;90.40;;;;;;5035750;28;20457;-69
2022/07/28 01:50:05;;;;;;;1.40;1.17;;;16.30;90.90;;;;;;5036094;28;20416;-69
2022/07/28 01:52:31;;;;;;;0.60;0.60;;;16.30;91.10;;;;;;5035970;28;20412;-70
2022/07/28 01:55:00;;;;;;;0.63;0.60;;;16.30;91.20;;;;;;5035503;28;20405;-69
2022/07/28 01:57:29;;;;;;;1.17;0.60;;;16.20;91.40;;;;;;5035625;28;20435;-70
2022/07/28 01:59:57;;;;;;;0.83;0.83;;;16.20;90.90;;;;;;5035673;28;20420;-70
2022/07/28 02:02:25;;;;;;;0.97;0.97;;;16.10;91.30;;;;;;5017783;28;20416;-70
2022/07/28 02:04:52;;;;;;;0.50;0.50;;;16.20;91.90;;;;;;5035711;28;20410;-69
2022/07/28 02:07:19;;;;;;;1.10;1.10;;;16.10;92.10;;;;;;5035569;28;20471;-70
2022/07/28 02:09:46;;;;;;;0.40;0.40;;;16.10;92.10;;;;;;5035427;28;20405;-70
2022/07/28 02:12:15;;;;;;;0.40;0.40;;;16.00;92.30;;;;;;5035460;28;20464;-69
2022/07/28 02:14:42;;;;;;;0.50;0.50;;;16.00;92.40;;;;;;5035529;28;20430;-69
2022/07/28 02:17:11;;;;;;;1.00;1.00;;;15.90;92.70;;;;;;5017676;28;20768;-69
2022/07/28 02:19:39;;;;;;;0.90;0.90;;;15.90;92.80;;;;;;5035302;28;20412;-70
2022/07/28 02:22:06;;;;;;;0.80;0.80;;;15.80;92.80;;;;;;5035255;28;20420;-70
2022/07/28 02:24:34;;;;;;;1.43;1.33;;;15.80;93.20;;;;;;5035233;28;20416;-71
2022/07/28 02:27:04;;;;;;;0.90;0.90;;;15.80;93.10;;;;;;5035034;28;20439;-69
2022/07/28 02:29:36;;;;;;;1.77;1.63;;;15.80;93.20;;;;;;5035504;28;20507;-70
2022/07/28 02:32:18;;;;;;;1.10;1.00;;;15.80;93.20;;;;;;5035054;28;20800;-69
2022/07/28 02:34:48;;;;;;;1.40;1.27;;;15.80;93.30;;;;;;5035212;28;20448;-70
2022/07/28 02:37:14;;;;;;;1.10;0.90;;;15.80;93.70;;;;;;5034827;28;20449;-69
2022/07/28 02:39:52;;;;;;;1.20;1.10;;;15.80;93.70;;;;;;5034985;28;20420;-69
2022/07/28 02:42:24;;;;;;;0.70;0.70;;;15.80;93.70;;;;;;5035051;28;20426;-69
2022/07/28 02:44:56;;;;;;;0.80;0.80;;;15.80;93.40;;;;;;5034835;28;20423;-70
2022/07/28 02:47:26;;;;;;;0.50;0.50;;;15.90;93.40;;;;;;5034772;28;20461;-69
2022/07/28 02:49:55;;;;;;;0.70;0.70;;;15.80;93.40;;;;;;5034991;28;20404;-69
2022/07/28 02:52:22;;;;;;;1.37;1.27;;;15.80;93.90;;;;;;5034704;28;20472;-69
2022/07/28 02:54:50;;;;;;;0.83;0.83;;;15.80;93.80;;;;;;5034624;28;20913;-70
2022/07/28 02:57:17;;;;;;;0.93;0.93;;;15.70;93.80;;;;;;5034724;28;20480;-69
2022/07/28 02:59:43;;;;;;;0.80;0.80;;;15.80;93.80;;;;;;5034569;28;20417;-70
2022/07/28 03:02:11;;;;;;;1.23;1.03;;;15.70;93.70;;;;;;5034547;28;20481;-70
2022/07/28 03:05:00;;;;;;;1.57;1.47;;;15.70;94.00;;;;;;5034486;28;20449;-71
2022/07/28 03:07:30;;;;;;;0.67;0.60;;;15.70;93.80;;;;;;5033668;28;20453;-70
2022/07/28 03:09:57;;;;;;;17.90;2.23;;;15.70;94.10;;;;;;5034434;28;20394;-69
2022/07/28 03:12:23;;;;;;;0.53;0.53;;;15.80;94.00;;;;;;5034323;28;20441;-69
2022/07/28 03:14:49;;;;;;;0.60;0.60;;;15.90;94.00;;;;;;5034308;28;20398;-69
2022/07/28 03:17:15;;;;;;;1.00;0.90;;;15.80;94.00;;;;;;5034400;28;20491;-70
2022/07/28 03:19:41;;;;;;;0.70;0.70;;;15.90;94.10;;;;;;5034432;28;20176;-70
2022/07/28 03:22:06;;;;;;;1.13;1.13;;;15.80;94.10;;;;;;5034110;28;20186;-69
2022/07/28 03:24:35;;;;;;;0.80;0.80;;;15.90;94.00;;;;;;5016538;28;20206;-70
2022/07/28 03:27:12;;;;;;;1.10;1.10;;;15.90;94.10;;;;;;5034098;28;20202;-69
2022/07/28 03:29:41;;;;;;;1.43;1.33;;;15.80;94.20;;;;;;5034055;28;20401;-69
2022/07/28 03:32:08;;;;;;;1.37;1.27;;;15.70;94.60;;;;;;5033982;28;20419;-69
2022/07/28 03:34:34;;;;;;;0.60;0.60;;;15.70;94.60;;;;;;5034045;28;20460;-69
2022/07/28 03:37:05;;;;;;;0.77;0.77;;;15.70;94.20;;;;;;5033845;28;20838;-70
2022/07/28 03:39:37;;;;;;;0.70;0.70;;;15.80;94.30;;;;;;5033872;28;20396;-69
2022/07/28 03:42:03;;;;;;;0.60;0.60;;;15.80;94.60;;;;;;5033844;28;20415;-68
2022/07/28 03:44:30;;;;;;;1.10;1.00;;;15.70;94.70;;;;;;5033849;28;20498;-70
2022/07/28 03:46:55;;;;;;;1.00;1.00;;;15.60;95.10;;;;;;5033450;28;20796;-69
2022/07/28 03:49:21;;;;;;;0.90;0.90;;;15.50;95.10;;;;;;5033758;28;20510;-69
2022/07/28 03:51:47;;;;;;;0.50;0.50;;;15.40;95.50;;;;;;5033702;28;20176;-70
2022/07/28 03:54:13;;;;;;;1.47;1.10;;;15.40;95.60;;;;;;5033488;28;20214;-69
2022/07/28 03:56:39;;;;;;;1.43;1.33;;;15.40;95.80;;;;;;5033647;28;20417;-69
2022/07/28 03:59:04;;;;;;;1.63;1.53;;;15.40;95.80;;;;;;5033532;28;20589;-70
2022/07/28 04:01:30;;;;;;;1.23;1.13;;;15.30;96.20;;;;;;5033631;28;20176;-70
2022/07/28 04:03:55;;;;;;;0.70;0.70;;;15.30;96.10;;;;;;5033306;28;20541;-70
2022/07/28 04:06:21;;;;;;;1.70;1.33;;;15.20;96.40;;;;;;5033627;28;20172;-70
2022/07/28 04:08:48;;;;;;;1.30;1.20;;;15.20;96.40;;;;;;5033476;28;20237;-69
2022/07/28 04:11:14;;;;;;;0.60;0.60;;;15.20;96.60;;;;;;5033423;28;20202;-69
2022/07/28 04:13:40;;;;;;;1.43;1.03;;;15.20;96.60;;;;;;5033183;28;20440;-69
2022/07/28 04:16:05;;;;;;;0.83;0.60;;;15.10;96.70;;;;;;5033375;28;20194;-69
2022/07/28 04:18:31;;;;;;;1.00;1.00;;;15.10;96.90;;;;;;5033173;28;20194;-68
2022/07/28 04:20:57;;;;;;;1.30;0.90;;;15.10;96.90;;;;;;5033242;28;20419;-69
2022/07/28 04:23:23;;;;;;;1.60;1.50;;;15.10;97.00;;;;;;5032995;28;20236;-69
2022/07/28 04:25:49;;;;;;;1.60;1.50;;;15.20;97.10;;;;;;5031294;28;20417;-74
2022/07/28 04:28:14;;;;;;;1.10;1.10;;;15.40;98.60;;;;;;5031712;28;20461;-73
2022/07/28 04:30:40;;;;;;;0.77;0.77;;;15.80;96.30;;;;;;5032232;28;20252;-74
2022/07/28 04:33:06;;;;;;;1.50;1.20;;;16.00;96.00;;;;;;5033260;28;20273;-73
2022/07/28 04:35:33;;;;;;;0.70;0.70;;;16.20;95.20;;;;;;5032292;28;20787;-73
2022/07/28 04:37:59;;;;;;;0.70;0.70;;;16.50;95.20;;;;;;5032767;28;20216;-72
2022/07/28 04:40:26;;;;;;;0.77;0.77;;;16.70;94.50;;;;;;5033364;28;20432;-70
2022/07/28 04:42:52;;;;;;;0.90;0.90;;;16.60;93.90;;;;;;5033038;28;20417;-69
2022/07/28 04:45:18;;;;;;;0.83;0.83;;;16.50;94.00;;;;;;5015044;28;20433;-69
2022/07/28 04:47:44;;;;;;;1.10;1.10;;;16.30;94.30;;;;;;5032096;28;20514;-69
2022/07/28 04:50:10;;;;;;;0.93;0.70;;;16.10;94.80;;;;;;5033193;28;20171;-69
2022/07/28 04:52:37;;;;;;;0.67;0.67;;;16.00;95.30;;;;;;5030446;28;20584;-70
2022/07/28 04:55:04;;;;;;;1.93;1.83;;;15.80;95.40;;;;;;5032076;28;20466;-69
2022/07/28 04:57:30;;;;;;;0.60;0.60;;;15.90;96.00;;;;;;5031791;28;20945;-69
2022/07/28 04:59:56;;;;;;;0.77;0.77;;;16.10;96.20;;;;;;5031405;28;20475;-69
2022/07/28 05:02:22;;;;;;;0.90;0.90;;;16.50;94.60;;;;;;5033136;28;20448;-69
2022/07/28 05:04:48;;;;;;;1.17;1.07;;;16.90;94.50;;;;;;5032925;28;20441;-69
2022/07/28 05:07:14;;;;;;;1.20;1.10;;;17.30;93.80;;;;;;5031864;28;20198;-69
2022/07/28 05:09:39;;;;;;;0.57;0.57;;;17.70;93.20;;;;;;5032583;28;20174;-70
2022/07/28 05:12:05;;;;;;;1.00;0.67;;;17.90;92.70;;;;;;5032736;28;20178;-69
2022/07/28 05:14:31;;;;;;;1.13;0.97;;;18.00;92.10;;;;;;5031604;28;20183;-69
2022/07/28 05:16:57;;;;;;;1.10;1.10;;;18.10;92.50;;;;;;5033463;28;20425;-69
2022/07/28 05:19:23;;;;;;;1.27;1.27;;;18.10;92.20;;;;;;5032681;28;20422;-69
2022/07/28 05:21:48;;;;;;;0.50;0.50;;;18.30;91.90;;;;;;5032234;28;20179;-69
2022/07/28 05:24:14;;;;;;;1.00;1.00;;;18.60;91.60;;;;;;5033257;28;20220;-69
2022/07/28 05:26:40;;;;;;;2.00;1.17;;;18.80;90.80;;;;;;5033007;28;20182;-69
2022/07/28 05:29:06;;;;;;;1.13;1.03;;;19.00;91.20;;;;;;5031433;28;20195;-70
2022/07/28 05:31:31;;;;;;;2.00;1.00;;;19.10;90.30;;;;;;5035731;28;20183;-70
2022/07/28 05:33:57;;;;;;;0.97;0.77;;;19.40;90.60;;;;;;5036351;28;20765;-70
2022/07/28 05:36:23;;;;;;;1.57;1.47;;;19.60;90.40;;;;;;5036349;28;20173;-70
2022/07/28 05:38:49;;;;;;;0.40;0.40;;;19.80;90.50;;;;;;5035021;28;20266;-71
2022/07/28 05:41:14;;;;;;;0.50;0.50;;;19.80;88.80;;;;;;5036524;28;20217;-67
2022/07/28 05:43:40;;;;;;;0.70;0.70;;;19.90;90.00;;;;;;5034967;28;20263;-69
2022/07/28 05:46:06;;;;;;;0.67;0.67;;;20.10;90.00;;;;;;5036515;28;20226;-69
2022/07/28 05:48:32;;;;;;;1.33;0.97;;;20.30;89.70;;;;;;5036130;28;20276;-70
2022/07/28 05:50:58;;;;;;;0.47;0.47;;;20.30;88.70;;;;;;5035988;28;20406;-70
2022/07/28 05:53:24;;;;;;;0.50;0.50;;;20.50;88.70;;;;;;5036208;28;20416;-70
2022/07/28 05:55:50;;;;;;;0.43;0.43;;;20.70;86.30;;;;;;5036205;28;20178;-70
2022/07/28 05:58:20;;;;;;;1.17;1.07;;;20.70;87.10;;;;;;5036432;28;20283;-70
2022/07/28 06:00:46;;;;;;;0.93;0.93;;;20.70;88.40;;;;;;5036439;28;20410;-69
2022/07/28 06:03:11;;;;;;;0.87;0.63;;;20.80;88.70;;;;;;5035817;28;20467;-70
2022/07/28 06:05:37;;;;;;;0.80;0.50;;;20.90;88.10;;;;;;5035857;28;20194;-70
2022/07/28 06:08:03;;;;;;;0.50;0.50;;;21.00;90.00;;;;;;5035844;28;20202;-69
2022/07/28 06:13:14;;;;;;;0.50;0.50;;;21.30;88.00;;;;;;5035612;28;20405;-69
2022/07/28 06:15:40;;;;;;;0.70;0.70;;;21.30;86.10;;;;;;5036208;28;20791;-70
2022/07/28 06:18:06;;;;;;;0.63;0.63;;;21.20;89.00;;;;;;5034207;28;20531;-69
2022/07/28 06:20:32;;;;;;;0.60;0.60;;;21.20;90.00;;;;;;5017947;28;20419;-69
2022/07/28 06:22:57;;;;;;;0.87;0.83;;;21.50;89.30;;;;;;5035336;28;20417;-69
2022/07/28 06:25:26;;;;;;;0.93;0.90;;;22.10;87.90;;;;;;5035612;28;20685;-70
2022/07/28 06:27:57;;;;;;;0.67;0.67;;;23.00;86.20;;;;;;5033872;28;20210;-69
2022/07/28 06:30:23;;;;;;;1.30;1.20;;;24.00;82.30;;;;;;5035960;28;20405;-69
2022/07/28 06:32:49;;;;;;;0.87;0.87;;;24.60;80.00;;;;;;5035142;28;20424;-70
2022/07/28 06:35:16;;;;;;;2.20;1.20;;;25.00;79.00;;;;;;5035493;28;20916;-70
2022/07/28 06:37:44;;;;;;;2.00;1.90;;;25.00;78.20;;;;;;5034903;28;20449;-70
2022/07/28 06:40:11;;;;;;;1.10;0.97;;;25.10;75.80;;;;;;5035607;28;20421;-69
2022/07/28 06:42:38;;;;;;;0.80;0.80;;;25.20;75.70;;;;;;5034011;28;20381;-69
2022/07/28 06:45:05;;;;;;;1.70;1.40;;;25.10;75.00;;;;;;5035089;28;20457;-70
2022/07/28 06:47:31;;;;;;;5.80;4.50;;;25.00;75.80;;;;;;5034957;28;20952;-70
2022/07/28 06:49:57;;;;;;;4.20;3.57;;;25.20;77.20;;;;;;5035232;28;20398;-70
2022/07/28 06:52:23;;;;;;;4.30;3.57;;;26.00;76.10;;;;;;5035011;28;20406;-71
2022/07/28 06:54:50;;;;;;;2.20;1.50;;;27.10;72.90;;;;;;5035368;28;20898;-69
2022/07/28 06:57:17;;;;;;;4.00;2.53;;;28.10;68.30;;;;;;5034052;28;20198;-71
2022/07/28 06:59:43;;;;;;;1.67;1.57;;;29.00;63.80;;;;;;5034296;28;20904;-71
2022/07/28 07:02:08;;;;;;;2.23;2.03;;;29.50;61.00;;;;;;5034670;28;20406;-70
2022/07/28 07:04:34;;;;;;;1.40;1.30;;;29.90;59.20;;;;;;5034953;28;20175;-71
2022/07/28 07:07:00;;;;;;;1.23;1.13;;;29.90;56.30;;;;;;5034635;28;20190;-71
2022/07/28 07:09:25;;;;;;;1.23;1.00;;;29.90;57.10;;;;;;5035081;28;20210;-70
2022/07/28 07:11:51;;;;;;;1.00;0.80;;;30.10;56.30;;;;;;5035036;28;20190;-70
2022/07/28 07:14:17;;;;;;;0.73;0.70;;;30.80;56.00;;;;;;5034557;28;20174;-70
2022/07/28 07:16:42;;;;;;;1.50;1.20;;;31.10;53.70;;;;;;5034147;28;20182;-70
2022/07/28 07:19:08;;;;;;;1.00;0.97;;;30.90;53.50;;;;;;5033629;28;20171;-70
2022/07/28 07:21:34;;;;;;;1.10;1.00;;;30.60;54.70;;;;;;5034745;28;20253;-71
2022/07/28 07:23:59;;;;;;;0.70;0.70;;;30.00;53.60;;;;;;5034711;28;20541;-70
2022/07/28 07:26:25;;;;;;;0.67;0.60;;;29.70;53.10;;;;;;5034042;28;20178;-71
2022/07/28 07:28:50;;;;;;;0.70;0.70;;;29.60;52.40;;;;;;5032219;28;20202;-70
2022/07/28 07:31:16;;;;;;;1.27;1.17;;;29.90;52.90;;;;;;5034531;28;20182;-71
2022/07/28 07:33:42;;;;;;;0.60;0.60;;;30.90;52.80;;;;;;5032747;28;20166;-70
2022/07/28 07:36:07;;;;;;;0.87;0.87;;;31.70;50.70;;;;;;5034317;28;20526;-70
2022/07/28 07:38:33;;;;;;;0.73;0.73;;;32.30;50.50;;;;;;5033804;28;20221;-71
2022/07/28 07:40:59;;;;;;;0.50;0.50;;;32.80;49.30;;;;;;5032291;28;20182;-70
2022/07/28 07:43:25;;;;;;;1.30;1.00;;;33.60;47.20;;;;;;5033636;28;20198;-70
2022/07/28 07:45:51;;;;;;;0.60;0.60;;;34.00;44.50;;;;;;5033106;28;20901;-71
2022/07/28 07:48:17;;;;;;;0.70;0.70;;;34.50;43.70;;;;;;5032991;28;20468;-71
2022/07/28 07:50:43;;;;;;;0.70;0.70;;;35.10;42.50;;;;;;5033572;28;20248;-71
2022/07/28 07:53:08;;;;;;;2.10;0.50;;;35.60;39.70;;;;;;5031775;28;20171;-71
2022/07/28 07:55:34;;;;;;;1.10;0.87;;;34.90;39.90;;;;;;5033214;28;20420;-70
2022/07/28 07:58:00;;;;;;;0.67;0.67;;;35.20;40.20;;;;;;5033462;28;20198;-71
2022/07/28 08:00:25;;;;;;;0.87;0.87;;;35.70;38.80;;;;;;5033684;28;20174;-70
2022/07/28 08:02:51;;;;;;;0.60;0.60;;;36.10;37.00;;;;;;5033033;28;20837;-71
2022/07/28 08:05:17;;;;;;;0.77;0.77;;;36.80;36.40;;;;;;5032212;28;20192;-71
2022/07/28 08:07:43;;;;;;;0.50;0.50;;;37.00;35.50;;;;;;5032481;28;20203;-70
2022/07/28 08:10:09;;;;;;;0.60;0.60;;;37.30;36.00;;;;;;5031770;28;20202;-71
2022/07/28 08:12:35;;;;;;;0.60;0.60;;;37.40;33.90;;;;;;5033192;28;20171;-71
2022/07/28 08:15:01;;;;;;;1.10;1.00;;;36.40;35.40;;;;;;5031802;28;20410;-70
2022/07/28 08:17:27;;;;;;;1.10;0.63;;;35.90;36.10;;;;;;5032539;28;20201;-71
2022/07/28 08:19:53;;;;;;;1.30;1.30;;;36.40;35.50;;;;;;5033563;28;20764;-71
2022/07/28 08:22:19;;;;;;;0.80;0.80;;;37.20;34.40;;;;;;5033372;28;20206;-71
2022/07/28 08:24:44;;;;;;;0.60;0.60;;;37.50;34.30;;;;;;5033238;28;20409;-71
2022/07/28 08:27:10;;;;;;;1.00;0.90;;;37.50;33.40;;;;;;5032512;28;20194;-72
2022/07/28 08:29:36;;;;;;;0.70;0.70;;;37.40;33.10;;;;;;5032971;28;20167;-70
2022/07/28 08:32:03;;;;;;;0.73;0.73;;;37.10;33.50;;;;;;5033230;28;20181;-71
2022/07/28 08:34:32;;;;;;;0.60;0.57;;;37.60;33.00;;;;;;5033419;28;20281;-71
2022/07/28 08:36:57;;;;;;;0.60;0.60;;;37.80;32.80;;;;;;5033196;28;20511;-71
2022/07/28 08:39:23;;;;;;;0.50;0.50;;;37.50;32.80;;;;;;5033232;28;20410;-70
2022/07/28 08:42:16;;;;;;;1.63;0.77;;;37.80;33.40;;;;;;5033155;28;20181;-71
2022/07/28 08:44:54;;;;;;;0.80;0.80;;;39.00;32.30;;;;;;5033300;28;20174;-69
2022/07/28 08:47:20;;;;;;;0.50;0.47;;;39.80;30.80;;;;;;5033241;28;20433;-69
2022/07/28 08:49:47;;;;;;;1.33;1.23;;;39.20;30.40;;;;;;5033156;28;20409;-69
2022/07/28 08:52:14;;;;;;;1.33;0.90;;;38.50;31.90;;;;;;5032999;28;20501;-69
2022/07/28 08:54:49;;;;;;;0.70;0.70;;;37.60;32.00;;;;;;5033172;28;20417;-69
2022/07/28 08:57:26;;;;;;;0.60;0.60;;;37.60;33.10;;;;;;5033080;28;20425;-69
2022/07/28 08:59:52;;;;;;;0.70;0.70;;;38.60;31.80;;;;;;5033169;28;20485;-69
2022/07/28 09:02:19;;;;;;;0.60;0.60;;;39.20;31.10;;;;;;5031578;28;20897;-69
2022/07/28 09:04:45;;;;;;;1.50;1.07;;;38.90;29.60;;;;;;5033003;28;20464;-69
2022/07/28 09:07:11;;;;;;;0.70;0.70;;;38.20;30.90;;;;;;5035705;28;20429;-68
2022/07/28 09:09:37;;;;;;;0.70;0.70;;;37.60;31.80;;;;;;5035910;28;20175;-68
2022/07/28 09:12:04;;;;;;;0.63;0.60;;;36.40;32.60;;;;;;5036758;28;20179;-68
2022/07/28 09:14:31;;;;;;;0.67;0.60;;;36.00;32.60;;;;;;5036819;28;20405;-68
2022/07/28 09:16:59;;;;;;;1.23;0.67;;;34.60;35.20;;;;;;5036103;28;20520;-68
2022/07/28 09:19:24;;;;;;;0.93;0.93;;;35.30;35.00;;;;;;5036765;28;20413;-68
2022/07/28 09:21:50;;;;;;;1.00;1.00;;;35.30;33.70;;;;;;5036120;28;20417;-68
2022/07/28 09:24:40;;;;;;;0.40;0.40;;;35.00;34.70;;;;;;5036515;28;20543;-69
2022/07/28 09:27:08;;;;;;;0.70;0.70;;;34.40;35.10;;;;;;5035658;28;21010;-68
2022/07/28 09:29:34;;;;;;;0.50;0.50;;;33.90;36.70;;;;;;5034454;28;20509;-68
2022/07/28 09:32:01;;;;;;;0.50;0.50;;;33.60;34.90;;;;;;5036223;28;20402;-68
2022/07/28 09:34:26;;;;;;;0.50;0.50;;;34.10;36.30;;;;;;5034932;28;20410;-69
2022/07/28 09:36:52;;;;;;;0.80;0.70;;;34.90;36.90;;;;;;5036318;28;20975;-68
2022/07/28 09:39:32;;;;;;;0.93;0.93;;;35.20;33.90;;;;;;5036063;28;20167;-69
2022/07/28 09:41:58;;;;;;;0.70;0.63;;;35.90;35.40;;;;;;5036692;28;20253;-69
2022/07/28 09:44:25;;;;;;;1.00;1.00;;;36.50;34.20;;;;;;5036266;28;20467;-69
2022/07/28 09:46:51;;;;;;;0.60;0.60;;;35.90;33.30;;;;;;5036135;28;20563;-69
2022/07/28 09:49:17;;;;;;;0.53;0.53;;;35.90;35.40;;;;;;5018658;28;20548;-68
2022/07/28 09:52:01;;;;;;;0.87;0.87;;;36.20;32.70;;;;;;5036537;28;20244;-68
2022/07/28 09:54:27;;;;;;;1.10;1.10;;;36.40;34.10;;;;;;5036695;28;20177;-68
2022/07/28 09:56:55;;;;;;;0.63;0.63;;;36.60;33.60;;;;;;5017881;28;20441;-68
2022/07/28 09:59:21;;;;;;;1.27;1.00;;;35.90;33.60;;;;;;5015111;28;20244;-68
2022/07/28 10:01:59;;;;;;;0.83;0.83;;;36.00;34.90;;;;;;5035507;28;20500;-68
2022/07/28 10:04:37;;;;;;;0.70;0.70;;;36.60;33.70;;;;;;5034083;28;20189;-69
2022/07/28 10:07:12;;;;;;;1.40;1.30;;;36.30;33.90;;;;;;5035997;28;20437;-68
2022/07/28 10:09:39;;;;;;;0.73;0.73;;;36.00;34.70;;;;;;5035253;28;20405;-68
2022/07/28 10:12:23;;;;;;;1.17;1.00;;;35.60;34.70;;;;;;5034021;28;20804;-68
2022/07/28 10:14:53;;;;;;;0.70;0.70;;;35.80;36.20;;;;;;5035920;28;20878;-68
2022/07/28 10:17:24;;;;;;;0.80;0.80;;;36.40;37.10;;;;;;5034754;28;20432;-68
2022/07/28 10:19:53;;;;;;;1.03;0.83;;;36.90;34.00;;;;;;5035453;28;20386;-68
2022/07/28 10:22:20;;;;;;;0.80;0.80;;;36.20;33.70;;;;;;5035327;28;20789;-68
2022/07/28 10:24:49;;;;;;;0.70;0.70;;;35.70;36.80;;;;;;5035728;28;20394;-68
2022/07/28 10:27:15;;;;;;;0.73;0.73;;;35.70;35.10;;;;;;5035351;28;20425;-68
2022/07/28 10:29:43;;;;;;;0.80;0.70;;;35.30;36.00;;;;;;5035319;28;20413;-68
2022/07/28 10:32:09;;;;;;;0.70;0.67;;;35.20;37.50;;;;;;5035235;28;20426;-68
2022/07/28 10:34:52;;;;;;;0.97;0.97;;;35.30;35.30;;;;;;5035143;28;20402;-68
2022/07/28 10:37:24;;;;;;;0.50;0.50;;;35.70;35.80;;;;;;5033676;28;20532;-68
2022/07/28 10:40:09;;;;;;;0.70;0.70;;;35.50;36.50;;;;;;5033201;28;20933;-68
2022/07/28 10:42:35;;;;;;;1.43;1.20;;;35.70;34.50;;;;;;5033386;28;20405;-68
2022/07/28 10:45:03;;;;;;;0.90;0.70;;;34.70;35.00;;;;;;5033826;28;20413;-68
2022/07/28 10:47:29;;;;;;;0.60;0.60;;;33.60;37.10;;;;;;5033713;28;20441;-68
2022/07/28 10:49:55;;;;;;;1.03;0.80;;;33.30;36.80;;;;;;5034681;28;20406;-68
2022/07/28 10:52:22;;;;;;;1.30;1.23;;;32.70;37.40;;;;;;5034839;28;20431;-68
2022/07/28 10:55:00;;;;;;;1.80;1.00;;;32.60;38.40;;;;;;5034922;28;20412;-68
2022/07/28 10:57:29;;;;;;;0.50;0.50;;;31.90;39.20;;;;;;5034725;28;20429;-68
2022/07/28 11:00:09;;;;;;;0.63;0.60;;;31.60;40.50;;;;;;5034780;28;20402;-68
2022/07/28 11:02:46;;;;;;;0.50;0.50;;;31.30;38.60;;;;;;5034652;28;20414;-68
2022/07/28 11:05:42;;;;;;;0.60;0.60;;;31.40;38.60;;;;;;5034790;28;20405;-68
2022/07/28 11:08:14;;;;;;;1.20;1.10;;;31.00;39.80;;;;;;5014292;28;21020;-68
2022/07/28 11:10:51;;;;;;;2.20;0.60;;;30.60;39.60;;;;;;5034665;28;20401;-68
2022/07/28 11:13:34;;;;;;;0.60;0.60;;;29.90;40.40;;;;;;5034270;28;20407;-68
2022/07/28 11:16:12;;;;;;;0.50;0.50;;;29.80;41.60;;;;;;5034625;28;20437;-68
2022/07/28 11:19:04;;;;;;;1.07;1.07;;;29.80;43.80;;;;;;5034455;28;20436;-68
2022/07/28 11:21:30;;;;;;;0.47;0.47;;;29.60;41.00;;;;;;5034487;28;20410;-70
2022/07/28 11:23:57;;;;;;;0.70;0.70;;;29.30;41.30;;;;;;5034333;28;20732;-69
2022/07/28 11:26:22;;;;;;;0.70;0.60;;;28.90;43.30;;;;;;5034675;28;20229;-70
2022/07/28 11:29:03;;;;;;;0.67;0.67;;;29.10;45.50;;;;;;5033386;28;20469;-70
2022/07/28 11:31:46;;;;;;;0.70;0.60;;;29.70;45.20;;;;;;5034319;28;20181;-70
2022/07/28 11:34:23;;;;;;;1.00;1.00;;;30.10;42.00;;;;;;5034163;28;20410;-69
2022/07/28 11:37:11;;;;;;;0.67;0.67;;;30.00;42.60;;;;;;5034087;28;20780;-70
2022/07/28 11:39:40;;;;;;;1.00;1.00;;;29.80;42.50;;;;;;5034211;28;20382;-70
2022/07/28 11:42:26;;;;;;;1.97;0.90;;;30.10;42.90;;;;;;5033872;28;20416;-70
2022/07/28 11:44:55;;;;;;;0.83;0.83;;;30.40;41.90;;;;;;5034129;28;20459;-70
2022/07/28 11:47:27;;;;;;;0.73;0.73;;;30.70;43.10;;;;;;5033731;28;20993;-70
2022/07/28 11:50:13;;;;;;;1.10;1.10;;;30.70;42.50;;;;;;5033968;28;20750;-70
2022/07/28 11:52:50;;;;;;;1.60;0.83;;;30.50;42.30;;;;;;5033719;28;20413;-70
2022/07/28 11:55:17;;;;;;;2.97;1.00;;;30.70;43.30;;;;;;5033950;28;20546;-70
2022/07/28 11:57:44;;;;;;;0.70;0.63;;;30.70;42.20;;;;;;5033924;28;20479;-70
2022/07/28 12:00:10;;;;;;;0.70;0.70;;;30.70;40.50;;;;;;5015989;28;20932;-70
2022/07/28 12:02:39;;;;;;;0.70;0.67;;;30.70;39.70;;;;;;5033661;28;20924;-70
2022/07/28 12:05:08;;;;;;;0.73;0.70;;;30.20;42.80;;;;;;5033597;28;20494;-70
2022/07/28 12:07:36;;;;;;;1.90;0.90;;;30.10;42.20;;;;;;5033514;28;20951;-70
2022/07/28 12:10:33;;;;;;;0.80;0.70;;;30.30;40.10;;;;;;5015811;28;20464;-70
2022/07/28 12:13:02;;;;;;;1.00;0.73;;;30.40;40.30;;;;;;5033536;28;20807;-70
2022/07/28 12:15:28;;;;;;;0.80;0.80;;;30.50;42.50;;;;;;5033734;28;20485;-70
2022/07/28 12:17:54;;;;;;;0.70;0.70;;;30.40;40.60;;;;;;5033359;28;20524;-70
2022/07/28 12:20:21;;;;;;;0.50;0.50;;;30.30;40.70;;;;;;5033636;28;20177;-70
2022/07/28 12:23:00;;;;;;;0.77;0.77;;;30.30;42.50;;;;;;5033529;28;20488;-70
2022/07/28 12:25:26;;;;;;;1.17;1.00;;;30.50;40.30;;;;;;5033517;28;20406;-70
2022/07/28 12:27:52;;;;;;;0.80;0.80;;;30.60;40.30;;;;;;5033329;28;20540;-69
2022/07/28 12:30:23;;;;;;;0.80;0.80;;;30.70;39.20;;;;;;5031083;28;20962;-70
2022/07/28 12:32:48;;;;;;;0.70;0.70;;;30.80;40.90;;;;;;5032026;28;20170;-70
2022/07/28 12:35:14;;;;;;;0.70;0.70;;;30.50;40.40;;;;;;5031758;28;20761;-70
2022/07/28 12:37:42;;;;;;;0.83;0.83;;;30.60;42.40;;;;;;5031324;28;20205;-70
2022/07/28 12:40:11;;;;;;;0.80;0.80;;;30.60;39.60;;;;;;5034325;28;20492;-69
2022/07/28 12:42:37;;;;;;;0.77;0.70;;;30.30;41.10;;;;;;5035177;28;20906;-69
2022/07/28 12:45:06;;;;;;;0.70;0.70;;;30.10;40.50;;;;;;5036529;28;20420;-69
2022/07/28 12:47:31;;;;;;;0.80;0.63;;;29.70;41.40;;;;;;5036592;28;20281;-70
2022/07/28 12:50:16;;;;;;;1.30;1.30;;;29.50;41.50;;;;;;5037194;28;20423;-69
2022/07/28 12:52:42;;;;;;;0.90;0.90;;;29.30;41.40;;;;;;5036917;28;20201;-70
2022/07/28 12:55:30;;;;;;;1.17;0.70;;;29.10;41.10;;;;;;5037243;28;20757;-69
2022/07/28 12:57:56;;;;;;;0.80;0.80;;;29.10;42.60;;;;;;5019412;28;20794;-69
2022/07/28 13:00:27;;;;;;;1.40;0.80;;;29.10;41.10;;;;;;5037058;28;20409;-69